Time;durP1;ratioP1;P1;durP2;ratioP2;P2;SDS_P1;SDS_P2;PMS_P1;PMS_P2;Temp;Humidity;BMP_temperature;BMP_pressure;BME280_temperature;BME280_humidity;BME280_pressure;Samples;Min_cycle;Max_cycle;Signal;HPM_P1;HPM_P2
2022/08/31 00:04:50;;;;;;;5.00;2.72;;;24.10;41.30;;;;;;5022132;28;20060;-61
2022/08/31 00:07:17;;;;;;;4.28;2.53;;;24.00;41.20;;;;;;5022366;28;20061;-61
2022/08/31 00:09:44;;;;;;;3.95;2.63;;;24.00;41.20;;;;;;5010427;28;20061;-61
2022/08/31 00:12:12;;;;;;;3.25;2.13;;;24.00;41.50;;;;;;5017573;28;20061;-60
2022/08/31 00:14:39;;;;;;;2.42;2.20;;;24.00;41.60;;;;;;5012912;28;20053;-59
2022/08/31 00:17:06;;;;;;;3.88;2.45;;;24.00;41.80;;;;;;5016097;28;20061;-59
2022/08/31 00:19:34;;;;;;;4.50;2.58;;;24.00;41.90;;;;;;5019733;28;20060;-55
2022/08/31 00:22:02;;;;;;;5.50;2.95;;;24.00;41.90;;;;;;5013789;28;20060;-60
2022/08/31 00:24:30;;;;;;;4.43;2.35;;;24.00;42.50;;;;;;5021486;28;20053;-60
2022/08/31 00:26:58;;;;;;;8.10;3.30;;;24.00;42.10;;;;;;5019962;28;20073;-56
2022/08/31 00:29:25;;;;;;;5.70;2.70;;;24.00;41.60;;;;;;5014767;28;20064;-59
2022/08/31 00:31:52;;;;;;;6.30;3.17;;;24.00;41.40;;;;;;5011902;28;20524;-57
2022/08/31 00:34:21;;;;;;;13.32;3.08;;;24.00;41.40;;;;;;5017453;28;20049;-57
2022/08/31 00:36:48;;;;;;;7.63;3.20;;;23.90;41.50;;;;;;5019346;28;20057;-57
2022/08/31 00:39:17;;;;;;;6.05;3.15;;;23.80;41.90;;;;;;5021827;28;20065;-60
2022/08/31 00:41:46;;;;;;;3.83;2.97;;;23.80;42.00;;;;;;5014312;28;20053;-60
2022/08/31 00:44:14;;;;;;;6.45;3.28;;;23.70;42.10;;;;;;5018250;28;20433;-61
2022/08/31 00:46:42;;;;;;;8.43;2.80;;;23.60;42.20;;;;;;5018815;28;20053;-59
2022/08/31 00:49:13;;;;;;;8.52;3.60;;;23.50;42.50;;;;;;5014494;28;20061;-61
2022/08/31 00:51:44;;;;;;;7.32;3.17;;;23.40;42.90;;;;;;5007322;28;20068;-58
2022/08/31 00:54:14;;;;;;;5.40;3.05;;;23.30;43.50;;;;;;5018326;28;20068;-60
2022/08/31 00:56:43;;;;;;;7.28;3.78;;;23.20;44.10;;;;;;5019992;28;20064;-61
2022/08/31 00:59:12;;;;;;;8.20;3.50;;;23.10;45.00;;;;;;5013796;28;20058;-59
2022/08/31 01:01:39;;;;;;;5.70;3.80;;;22.90;45.50;;;;;;5005524;28;20053;-56
2022/08/31 01:04:07;;;;;;;7.90;3.65;;;22.80;45.90;;;;;;5020121;28;20084;-53
2022/08/31 01:06:35;;;;;;;8.77;3.90;;;22.70;46.60;;;;;;5021441;28;20057;-57
2022/08/31 01:09:05;;;;;;;7.40;4.13;;;22.60;47.70;;;;;;5016281;28;20060;-58
2022/08/31 01:11:34;;;;;;;8.52;4.15;;;22.30;48.70;;;;;;5011500;28;20684;-58
2022/08/31 01:14:03;;;;;;;7.82;4.45;;;22.10;49.60;;;;;;5019560;28;20053;-51
2022/08/31 01:16:37;;;;;;;5.53;4.30;;;21.90;50.60;;;;;;5019635;28;20069;-58
2022/08/31 01:19:09;;;;;;;9.95;4.20;;;21.70;51.50;;;;;;5015100;28;20056;-56
2022/08/31 01:21:43;;;;;;;9.40;4.80;;;21.40;52.20;;;;;;5017125;28;20057;-57
2022/08/31 01:24:13;;;;;;;10.68;4.82;;;21.20;52.90;;;;;;5019115;28;20060;-53
2022/08/31 01:26:40;;;;;;;8.68;4.45;;;20.90;53.80;;;;;;5016835;28;20069;-58
2022/08/31 01:29:08;;;;;;;9.77;4.63;;;20.70;54.40;;;;;;5017291;28;20061;-52
2022/08/31 01:31:38;;;;;;;9.20;5.57;;;20.50;55.20;;;;;;5007537;28;20058;-56
2022/08/31 01:34:06;;;;;;;7.03;4.65;;;20.30;55.90;;;;;;5013590;28;20045;-59
2022/08/31 01:36:35;;;;;;;9.60;5.25;;;20.10;56.20;;;;;;5015454;28;20060;-58
2022/08/31 01:39:03;;;;;;;10.30;4.50;;;20.00;56.60;;;;;;5008268;28;20062;-55
2022/08/31 01:41:32;;;;;;;10.43;4.50;;;19.90;57.00;;;;;;5009650;28;20041;-59
2022/08/31 01:43:59;;;;;;;8.55;4.90;;;19.80;57.20;;;;;;5013081;28;20069;-59
2022/08/31 01:46:26;;;;;;;9.15;4.43;;;19.80;57.20;;;;;;5019991;28;20061;-60
2022/08/31 01:48:53;;;;;;;10.80;5.10;;;19.80;57.40;;;;;;5020514;28;20049;-60
2022/08/31 01:51:22;;;;;;;8.35;4.32;;;19.80;57.60;;;;;;5012255;28;20064;-54
2022/08/31 01:53:52;;;;;;;6.57;4.18;;;19.70;57.60;;;;;;5011609;28;20060;-59
2022/08/31 01:56:22;;;;;;;6.93;3.67;;;19.70;57.50;;;;;;5024473;28;20053;-60
2022/08/31 01:58:51;;;;;;;8.05;4.20;;;19.80;57.50;;;;;;5023124;28;20409;-59
2022/08/31 02:01:19;;;;;;;6.68;3.50;;;19.80;57.30;;;;;;5024302;28;20049;-59
2022/08/31 02:03:46;;;;;;;5.90;4.10;;;19.80;57.40;;;;;;5023210;28;20053;-59
2022/08/31 02:06:14;;;;;;;4.25;3.38;;;19.90;57.40;;;;;;5024941;28;20061;-59
2022/08/31 02:08:41;;;;;;;6.65;3.47;;;20.00;57.40;;;;;;5023431;28;20053;-58
2022/08/31 02:11:08;;;;;;;5.70;3.40;;;20.00;57.40;;;;;;5023140;28;20061;-59
2022/08/31 02:13:36;;;;;;;9.63;3.47;;;20.10;57.30;;;;;;5022002;28;20413;-60
2022/08/31 02:16:05;;;;;;;4.93;3.72;;;20.20;57.40;;;;;;5024354;28;20060;-60
2022/08/31 02:18:34;;;;;;;5.63;4.18;;;20.20;57.40;;;;;;5023110;28;20061;-56
2022/08/31 02:21:01;;;;;;;6.03;4.20;;;20.30;57.40;;;;;;5022891;28;20443;-60
2022/08/31 02:23:28;;;;;;;6.57;3.88;;;20.40;57.40;;;;;;5023270;28;20429;-59
2022/08/31 02:25:55;;;;;;;5.10;3.60;;;20.40;57.30;;;;;;5024385;28;20521;-60
2022/08/31 02:28:23;;;;;;;5.55;3.80;;;20.40;57.00;;;;;;5022179;28;20068;-55
2022/08/31 02:30:50;;;;;;;4.75;3.83;;;20.50;57.00;;;;;;5023559;28;20076;-54
2022/08/31 02:33:19;;;;;;;6.03;4.15;;;20.50;57.00;;;;;;5022886;28;20060;-55
2022/08/31 02:35:46;;;;;;;4.78;3.92;;;20.60;57.00;;;;;;5023356;28;20057;-60
2022/08/31 02:38:13;;;;;;;5.30;4.00;;;20.60;56.90;;;;;;5022389;28;20414;-60
2022/08/31 02:40:40;;;;;;;8.60;4.50;;;20.60;57.00;;;;;;5023190;28;20072;-60
2022/08/31 02:43:09;;;;;;;7.65;3.40;;;20.60;57.10;;;;;;5017548;28;20864;-60
2022/08/31 02:45:37;;;;;;;7.15;3.58;;;20.70;57.10;;;;;;5017735;28;20501;-58
2022/08/31 02:48:06;;;;;;;4.80;3.60;;;20.70;56.90;;;;;;5022898;28;20061;-60
2022/08/31 02:50:39;;;;;;;4.78;3.38;;;20.70;56.90;;;;;;5021599;28;20405;-60
2022/08/31 02:53:06;;;;;;;5.93;3.80;;;20.70;56.90;;;;;;5019085;28;20053;-60
2022/08/31 02:55:33;;;;;;;4.50;3.65;;;20.80;56.80;;;;;;5020463;28;20049;-59
2022/08/31 02:58:00;;;;;;;5.30;3.45;;;20.80;56.90;;;;;;5021326;28;20057;-59
2022/08/31 03:00:28;;;;;;;6.07;3.55;;;20.80;56.70;;;;;;5022361;28;20057;-49
2022/08/31 03:02:55;;;;;;;9.18;3.60;;;20.80;56.70;;;;;;5024043;28;20056;-46
2022/08/31 03:05:23;;;;;;;4.82;3.78;;;20.80;56.70;;;;;;5015218;28;20378;-46
2022/08/31 03:07:52;;;;;;;6.30;4.13;;;20.80;56.50;;;;;;5022028;28;20057;-49
2022/08/31 03:10:22;;;;;;;7.95;3.83;;;20.80;56.60;;;;;;5010754;28;20053;-47
2022/08/31 03:12:50;;;;;;;6.90;4.13;;;20.80;56.60;;;;;;5021870;28;20132;-48
2022/08/31 03:15:20;;;;;;;4.68;3.70;;;20.80;56.50;;;;;;5021585;28;20060;-46
2022/08/31 03:17:48;;;;;;;5.47;3.90;;;20.90;56.50;;;;;;5022408;28;20416;-51
2022/08/31 03:20:17;;;;;;;7.13;4.18;;;20.90;56.50;;;;;;5014819;28;20065;-49
2022/08/31 03:22:44;;;;;;;6.22;3.67;;;20.80;56.90;;;;;;5021943;28;20057;-50
2022/08/31 03:25:13;;;;;;;7.57;4.22;;;20.80;56.30;;;;;;5022584;28;20513;-52
2022/08/31 03:27:40;;;;;;;7.57;4.25;;;20.80;56.30;;;;;;5021213;28;20499;-53
2022/08/31 03:30:10;;;;;;;6.47;3.90;;;20.80;56.20;;;;;;5013795;28;20052;-47
2022/08/31 03:32:37;;;;;;;6.38;3.92;;;20.80;56.30;;;;;;5016891;28;20058;-49
2022/08/31 03:35:05;;;;;;;6.57;3.50;;;20.80;56.30;;;;;;5023209;28;20050;-47
2022/08/31 03:37:33;;;;;;;4.93;3.60;;;20.80;56.40;;;;;;5021077;28;20049;-49
2022/08/31 03:40:00;;;;;;;6.88;3.63;;;20.80;56.40;;;;;;5017823;28;20053;-55
2022/08/31 03:42:29;;;;;;;6.05;3.63;;;20.80;56.30;;;;;;5022330;28;20072;-49
2022/08/31 03:44:57;;;;;;;4.07;3.22;;;20.80;56.40;;;;;;5020939;28;20053;-51
2022/08/31 03:47:24;;;;;;;5.00;3.60;;;20.80;56.40;;;;;;5018459;28;20056;-49
2022/08/31 03:49:51;;;;;;;4.65;3.53;;;20.80;56.70;;;;;;5017344;28;20049;-46
2022/08/31 03:52:20;;;;;;;5.45;3.53;;;20.80;56.50;;;;;;5021860;28;20057;-47
2022/08/31 03:54:48;;;;;;;4.28;3.28;;;20.80;56.50;;;;;;5021835;28;20080;-49
2022/08/31 03:57:15;;;;;;;5.20;3.83;;;20.80;56.50;;;;;;5010542;28;20516;-50
2022/08/31 03:59:43;;;;;;;6.00;4.20;;;20.80;56.60;;;;;;5012099;28;20060;-48
2022/08/31 04:02:11;;;;;;;4.72;3.80;;;20.70;56.60;;;;;;5015170;28;20049;-49
2022/08/31 04:04:38;;;;;;;17.33;10.15;;;20.70;56.60;;;;;;5021048;28;20061;-49
2022/08/31 04:07:05;;;;;;;18.13;10.75;;;20.70;56.80;;;;;;5020275;28;20056;-49
2022/08/31 04:09:32;;;;;;;11.25;7.22;;;20.70;56.80;;;;;;5015552;28;20064;-48
2022/08/31 04:11:59;;;;;;;8.93;5.28;;;20.70;56.80;;;;;;5016870;28;20046;-49
2022/08/31 04:14:27;;;;;;;5.72;4.70;;;20.70;56.90;;;;;;5021363;28;20077;-52
2022/08/31 04:16:55;;;;;;;9.77;4.50;;;20.70;57.00;;;;;;5014203;28;20058;-51
2022/08/31 04:19:23;;;;;;;5.97;4.32;;;20.70;57.10;;;;;;5016248;28;20394;-47
2022/08/31 04:21:51;;;;;;;5.43;4.13;;;20.70;57.10;;;;;;5013024;28;20067;-51
2022/08/31 04:24:18;;;;;;;5.28;3.60;;;20.70;57.20;;;;;;5020971;28;20057;-50
2022/08/31 04:26:45;;;;;;;5.78;3.88;;;20.70;57.70;;;;;;5018646;28;20057;-50
2022/08/31 04:29:12;;;;;;;5.85;4.00;;;20.70;57.30;;;;;;5011085;28;20561;-47
2022/08/31 04:31:40;;;;;;;6.43;4.53;;;20.70;57.20;;;;;;5016691;28;20509;-46
2022/08/31 04:34:08;;;;;;;5.55;4.20;;;20.60;57.20;;;;;;5018149;28;20057;-51
2022/08/31 04:36:36;;;;;;;4.75;4.25;;;20.70;57.40;;;;;;5022174;28;20053;-49
2022/08/31 04:39:05;;;;;;;7.00;4.20;;;20.70;57.40;;;;;;5021015;28;20509;-49
2022/08/31 04:41:35;;;;;;;6.90;4.07;;;20.70;57.60;;;;;;5005624;28;20073;-50
2022/08/31 04:44:03;;;;;;;5.38;3.75;;;20.70;57.60;;;;;;5015208;28;20060;-46
2022/08/31 04:46:31;;;;;;;6.78;4.32;;;20.70;57.50;;;;;;5014825;28;20061;-49
2022/08/31 04:49:00;;;;;;;5.97;4.30;;;20.70;57.60;;;;;;5012475;28;20068;-51
2022/08/31 04:51:30;;;;;;;6.05;3.85;;;20.70;57.60;;;;;;5010199;28;20072;-50
2022/08/31 04:53:58;;;;;;;5.35;3.80;;;20.70;57.70;;;;;;5016406;28;20552;-47
2022/08/31 04:56:27;;;;;;;7.80;4.28;;;20.70;57.60;;;;;;5016870;28;20076;-52
2022/08/31 04:58:57;;;;;;;20.30;10.70;;;20.70;57.70;;;;;;5010744;28;20061;-52
2022/08/31 05:01:26;;;;;;;14.13;8.93;;;20.70;57.70;;;;;;5006406;28;20069;-49
2022/08/31 05:03:56;;;;;;;9.27;5.20;;;20.70;57.60;;;;;;5012387;28;20049;-46
2022/08/31 05:06:25;;;;;;;7.00;4.28;;;20.70;57.60;;;;;;5015403;28;20055;-52
2022/08/31 05:08:55;;;;;;;6.63;4.03;;;20.70;57.60;;;;;;5008688;28;20470;-50
2022/08/31 05:11:24;;;;;;;7.78;4.18;;;20.70;57.70;;;;;;5007134;28;20057;-50
2022/08/31 05:13:52;;;;;;;6.20;3.65;;;20.70;57.70;;;;;;5012225;28;20049;-51
2022/08/31 05:16:20;;;;;;;6.50;3.97;;;20.70;57.70;;;;;;5016141;28;20057;-51
2022/08/31 05:18:49;;;;;;;5.25;4.00;;;20.70;57.70;;;;;;5013557;28;20417;-51
2022/08/31 05:21:19;;;;;;;5.97;3.92;;;20.70;57.70;;;;;;5012158;28;20536;-47
2022/08/31 05:23:47;;;;;;;4.88;4.00;;;20.70;57.90;;;;;;5021696;28;20053;-47
2022/08/31 05:26:19;;;;;;;6.38;4.80;;;20.70;57.90;;;;;;5021599;28;20053;-49
2022/08/31 05:28:47;;;;;;;7.28;4.97;;;20.70;58.30;;;;;;5016737;28;20061;-47
2022/08/31 05:31:15;;;;;;;4.70;3.88;;;20.70;58.50;;;;;;5015163;28;20505;-50
2022/08/31 05:33:44;;;;;;;5.53;4.30;;;20.70;58.40;;;;;;5019463;28;20050;-52
2022/08/31 05:36:12;;;;;;;7.10;4.00;;;20.60;58.40;;;;;;5015014;28;20049;-51
2022/08/31 05:38:40;;;;;;;7.25;3.90;;;20.60;58.40;;;;;;5021081;28;20124;-48
2022/08/31 05:41:08;;;;;;;6.57;4.25;;;20.60;58.40;;;;;;5016313;28;20057;-49
2022/08/31 05:43:38;;;;;;;5.75;4.20;;;20.60;58.50;;;;;;5017505;28;20041;-51
2022/08/31 05:46:06;;;;;;;7.18;4.18;;;20.60;58.70;;;;;;5019685;28;20057;-46
2022/08/31 05:48:35;;;;;;;5.63;4.18;;;20.60;58.70;;;;;;5020624;28;20442;-47
2022/08/31 05:51:04;;;;;;;6.35;4.30;;;20.60;58.70;;;;;;5015656;28;20060;-54
2022/08/31 05:53:31;;;;;;;9.93;5.18;;;20.60;58.70;;;;;;5012742;28;20486;-46
2022/08/31 05:56:00;;;;;;;8.15;4.18;;;20.60;58.80;;;;;;5017693;28;20066;-51
2022/08/31 05:58:28;;;;;;;10.02;5.60;;;20.60;58.80;;;;;;5022102;28;20072;-49
2022/08/31 06:00:57;;;;;;;8.68;5.05;;;20.60;59.00;;;;;;5016777;28;20605;-47
2022/08/31 06:03:24;;;;;;;6.65;4.25;;;20.60;59.10;;;;;;5014932;28;20052;-47
2022/08/31 06:05:51;;;;;;;7.50;4.20;;;20.60;59.00;;;;;;5020950;28;20053;-47
2022/08/31 06:08:19;;;;;;;11.73;5.50;;;20.60;59.00;;;;;;5023408;28;20509;-49
2022/08/31 06:10:47;;;;;;;6.78;4.47;;;20.60;59.20;;;;;;5019627;28;20505;-47
2022/08/31 06:13:16;;;;;;;8.52;4.85;;;20.50;59.30;;;;;;5019679;28;20046;-54
2022/08/31 06:15:45;;;;;;;8.18;5.05;;;20.50;59.40;;;;;;5018197;28;20053;-47
2022/08/31 06:18:13;;;;;;;7.35;4.57;;;20.50;59.50;;;;;;5017857;28;20060;-52
2022/08/31 06:20:40;;;;;;;9.73;5.35;;;20.50;59.60;;;;;;5008187;28;20049;-49
2022/08/31 06:23:08;;;;;;;9.32;5.50;;;20.50;59.70;;;;;;5012415;28;20061;-48
2022/08/31 06:25:36;;;;;;;6.57;5.00;;;20.50;59.90;;;;;;5016708;28;20425;-51
2022/08/31 06:28:06;;;;;;;6.32;4.85;;;20.50;59.80;;;;;;5015767;28;20053;-55
2022/08/31 06:30:36;;;;;;;11.13;4.68;;;20.50;59.80;;;;;;5009226;28;20057;-53
2022/08/31 06:33:03;;;;;;;8.32;4.90;;;20.50;59.90;;;;;;5019042;28;20053;-48
2022/08/31 06:35:32;;;;;;;9.90;5.72;;;20.50;59.80;;;;;;5014613;28;20053;-47
2022/08/31 06:38:00;;;;;;;7.60;5.70;;;20.50;60.00;;;;;;5017126;28;20502;-45
2022/08/31 06:40:28;;;;;;;8.10;5.03;;;20.50;59.90;;;;;;5016961;28;20399;-49
2022/08/31 06:42:55;;;;;;;7.05;5.10;;;20.50;59.90;;;;;;5019796;28;20061;-56
2022/08/31 06:45:23;;;;;;;6.35;4.53;;;20.50;59.80;;;;;;5017337;28;21566;-51
2022/08/31 06:47:50;;;;;;;9.13;5.40;;;20.60;60.00;;;;;;5019080;28;20045;-53
2022/08/31 06:50:17;;;;;;;7.35;5.43;;;20.50;60.00;;;;;;5011671;28;20056;-51
2022/08/31 06:52:47;;;;;;;10.70;6.32;;;20.50;60.00;;;;;;5014862;28;20053;-49
2022/08/31 06:55:14;;;;;;;12.52;5.63;;;20.50;60.20;;;;;;5004013;28;20050;-56
2022/08/31 06:57:41;;;;;;;11.25;5.80;;;20.50;60.00;;;;;;4997869;28;20441;-56
2022/08/31 07:00:09;;;;;;;9.70;5.60;;;20.60;60.70;;;;;;5002921;28;20441;-51
2022/08/31 07:02:36;;;;;;;9.13;5.65;;;20.50;60.00;;;;;;5012045;28;20516;-47
2022/08/31 07:05:04;;;;;;;16.05;6.32;;;20.60;60.30;;;;;;5001329;28;20061;-50
2022/08/31 07:07:32;;;;;;;10.02;5.97;;;20.60;60.50;;;;;;5015271;28;20053;-49
2022/08/31 07:10:00;;;;;;;9.45;6.43;;;20.60;60.70;;;;;;5005325;28;20398;-50
2022/08/31 07:12:27;;;;;;;9.63;6.30;;;20.50;60.80;;;;;;5011925;28;20057;-53
2022/08/31 07:14:54;;;;;;;10.85;6.68;;;20.50;60.70;;;;;;5010392;28;20401;-49
2022/08/31 07:17:22;;;;;;;9.70;6.82;;;20.50;60.90;;;;;;5001813;28;20394;-51
2022/08/31 07:19:49;;;;;;;8.38;6.20;;;20.40;61.40;;;;;;5005525;28;20080;-56
2022/08/31 07:22:16;;;;;;;7.43;5.50;;;20.40;61.70;;;;;;5010166;28;20061;-56
2022/08/31 07:24:43;;;;;;;7.38;5.47;;;20.40;61.80;;;;;;5006634;28;20057;-55
2022/08/31 07:27:15;;;;;;;6.57;4.95;;;20.30;61.80;;;;;;5012019;28;20490;-54
2022/08/31 07:29:43;;;;;;;7.45;5.47;;;20.40;62.30;;;;;;5006598;28;20054;-46
2022/08/31 07:32:12;;;;;;;8.65;4.95;;;20.40;62.40;;;;;;5016260;28;20069;-47
2022/08/31 07:34:40;;;;;;;7.40;4.97;;;20.40;62.40;;;;;;5020301;28;20056;-48
2022/08/31 07:42:43;;;;;;;6.07;4.90;;;20.50;62.30;;;;;;5022557;28;20116;-52
2022/08/31 07:45:20;;;;;;;6.97;5.18;;;20.60;62.60;;;;;;5015562;28;20050;-49
2022/08/31 07:47:48;;;;;;;7.25;4.80;;;20.60;63.30;;;;;;5019458;28;20600;-49
2022/08/31 07:50:17;;;;;;;8.20;5.20;;;20.70;62.50;;;;;;4997057;28;20058;-49
2022/08/31 07:52:50;;;;;;;6.70;4.90;;;20.70;62.60;;;;;;5015738;28;20057;-54
2022/08/31 07:55:18;;;;;;;7.45;5.10;;;20.80;62.60;;;;;;5017471;28;20088;-47
2022/08/31 07:57:46;;;;;;;7.57;5.20;;;20.80;62.50;;;;;;5019501;28;20058;-55
2022/08/31 08:00:17;;;;;;;6.18;4.82;;;20.90;62.70;;;;;;5009939;28;20080;-47
2022/08/31 08:02:45;;;;;;;5.43;4.90;;;20.90;62.80;;;;;;5017264;28;20425;-48
2022/08/31 08:05:19;;;;;;;7.68;5.72;;;21.00;62.80;;;;;;5016380;28;20517;-53
2022/08/31 08:07:49;;;;;;;6.80;4.97;;;21.00;62.80;;;;;;5015450;28;20068;-48
2022/08/31 08:10:17;;;;;;;10.35;5.43;;;21.10;62.60;;;;;;5012269;28;20417;-51
2022/08/31 08:12:49;;;;;;;9.45;5.80;;;21.20;62.50;;;;;;5017415;28;20054;-52
2022/08/31 08:15:17;;;;;;;11.63;5.53;;;21.20;62.50;;;;;;5010316;28;20045;-53
2022/08/31 08:17:44;;;;;;;6.25;4.82;;;21.30;62.40;;;;;;5007778;28;20489;-49
2022/08/31 08:20:11;;;;;;;11.27;5.82;;;21.30;62.10;;;;;;5011835;28;20390;-48
2022/08/31 08:22:40;;;;;;;9.25;5.40;;;21.40;61.90;;;;;;5009387;28;20049;-46
2022/08/31 08:25:08;;;;;;;7.43;5.07;;;21.50;61.90;;;;;;5014818;28;20103;-49
2022/08/31 08:27:36;;;;;;;7.00;5.72;;;21.50;61.80;;;;;;5014108;28;20409;-48
2022/08/31 08:30:07;;;;;;;7.25;5.13;;;21.60;62.20;;;;;;5008404;28;20058;-51
2022/08/31 08:32:35;;;;;;;10.00;5.75;;;21.60;62.30;;;;;;5017965;28;20060;-48
2022/08/31 08:35:03;;;;;;;7.22;5.55;;;21.60;62.00;;;;;;5014189;28;20068;-47
2022/08/31 08:37:30;;;;;;;7.68;5.78;;;21.70;62.30;;;;;;5010294;28;20045;-52
2022/08/31 08:39:58;;;;;;;9.98;5.68;;;21.80;62.20;;;;;;5009618;28;20057;-56
2022/08/31 08:42:26;;;;;;;5.88;5.13;;;21.80;61.80;;;;;;5017139;28;20053;-48
2022/08/31 08:44:53;;;;;;;7.63;5.97;;;21.90;61.90;;;;;;5008277;28;20073;-47
2022/08/31 08:47:27;;;;;;;11.70;6.78;;;21.90;61.20;;;;;;5010736;28;20061;-47
2022/08/31 08:49:56;;;;;;;7.65;5.60;;;22.00;60.80;;;;;;5005454;28;20058;-53
2022/08/31 08:52:28;;;;;;;7.22;5.35;;;22.10;60.70;;;;;;5013518;28;20068;-46
2022/08/31 08:54:59;;;;;;;6.93;5.53;;;22.10;60.90;;;;;;5014961;28;20062;-47
2022/08/31 08:57:31;;;;;;;7.53;5.65;;;22.20;60.90;;;;;;5011693;28;20053;-48
2022/08/31 09:00:02;;;;;;;7.90;6.18;;;22.20;60.70;;;;;;5017097;28;20062;-53
2022/08/31 09:02:39;;;;;;;8.20;5.47;;;22.30;61.10;;;;;;5023144;28;20477;-46
2022/08/31 09:05:36;;;;;;;7.38;4.88;;;22.40;60.60;;;;;;5017835;28;20057;-52
2022/08/31 09:08:31;;;;;;;5.72;4.90;;;22.40;60.10;;;;;;5017435;28;20516;-46
2022/08/31 09:11:16;;;;;;;7.70;4.57;;;22.50;61.00;;;;;;5014312;28;20068;-57
2022/08/31 09:13:54;;;;;;;6.25;4.93;;;22.60;60.00;;;;;;5012296;28;20057;-54
2022/08/31 09:16:39;;;;;;;6.75;4.72;;;22.70;59.80;;;;;;5009282;28;20060;-55
2022/08/31 09:19:12;;;;;;;8.13;5.50;;;22.80;59.50;;;;;;5016816;28;20049;-47
2022/08/31 09:21:43;;;;;;;7.10;4.50;;;22.90;59.10;;;;;;5010623;28;20050;-47
2022/08/31 09:24:13;;;;;;;5.55;4.55;;;22.90;58.90;;;;;;5014663;28;20486;-49
2022/08/31 09:26:54;;;;;;;8.68;4.78;;;23.00;58.70;;;;;;5014807;28;20057;-49
2022/08/31 09:29:23;;;;;;;7.30;4.78;;;23.10;58.50;;;;;;5006192;28;20060;-48
2022/08/31 09:32:00;;;;;;;7.43;5.10;;;23.10;58.40;;;;;;5018900;28;20060;-47
2022/08/31 09:34:31;;;;;;;8.18;4.85;;;23.20;58.10;;;;;;5014672;28;20053;-49
2022/08/31 09:37:15;;;;;;;6.88;4.70;;;23.20;57.90;;;;;;5015451;28;20050;-57
2022/08/31 09:39:46;;;;;;;7.67;5.00;;;23.30;57.70;;;;;;5015443;28;20060;-57
2022/08/31 09:42:20;;;;;;;9.05;4.50;;;23.30;57.60;;;;;;5014976;28;20056;-49
2022/08/31 09:44:49;;;;;;;7.38;5.65;;;23.40;57.40;;;;;;5015055;28;20049;-49
2022/08/31 09:47:46;;;;;;;8.68;6.07;;;23.40;57.10;;;;;;5019550;28;20049;-48
2022/08/31 09:50:29;;;;;;;10.38;5.63;;;23.40;56.70;;;;;;5005103;28;20058;-55
2022/08/31 09:56:12;;;;;;;5.90;4.93;;;23.40;56.30;;;;;;5016948;28;20056;-47
2022/08/31 09:58:42;;;;;;;9.38;5.18;;;23.40;56.40;;;;;;5015807;28;20054;-52
2022/08/31 10:01:14;;;;;;;6.78;4.50;;;23.40;56.40;;;;;;5011709;28;20497;-50
2022/08/31 10:03:49;;;;;;;6.95;4.40;;;23.40;56.50;;;;;;5017454;28;20409;-50
2022/08/31 10:06:45;;;;;;;5.32;3.90;;;23.40;56.50;;;;;;5019403;28;20054;-49
2022/08/31 10:09:21;;;;;;;6.32;4.70;;;23.40;56.50;;;;;;5010644;28;20061;-52
2022/08/31 10:11:53;;;;;;;5.85;4.78;;;23.50;56.70;;;;;;5007890;28;20485;-50
2022/08/31 10:14:27;;;;;;;15.80;6.78;;;23.50;56.60;;;;;;5015795;28;20053;-48
2022/08/31 10:17:01;;;;;;;7.10;5.45;;;23.50;56.70;;;;;;5018750;28;20065;-51
2022/08/31 10:19:43;;;;;;;7.55;4.72;;;23.50;56.70;;;;;;5020029;28;20060;-50
2022/08/31 10:22:21;;;;;;;6.03;4.97;;;23.60;56.70;;;;;;5018304;28;20390;-51
2022/08/31 10:25:03;;;;;;;6.07;4.75;;;23.60;56.50;;;;;;5021277;28;20053;-48
2022/08/31 10:27:39;;;;;;;7.57;5.40;;;23.70;56.50;;;;;;5014129;28;20061;-53
2022/08/31 10:30:11;;;;;;;10.60;6.20;;;23.70;55.20;;;;;;5008332;28;20053;-58
2022/08/31 10:32:45;;;;;;;9.25;5.65;;;23.70;54.30;;;;;;5011913;28;20497;-47
2022/08/31 10:35:18;;;;;;;7.43;5.45;;;23.70;53.90;;;;;;5018699;28;20055;-52
2022/08/31 10:37:55;;;;;;;9.40;6.03;;;23.70;54.10;;;;;;5008535;28;20054;-47
2022/08/31 10:40:30;;;;;;;10.85;5.32;;;23.60;53.90;;;;;;5019758;28;20045;-56
2022/08/31 10:43:08;;;;;;;5.68;4.10;;;23.60;54.60;;;;;;5022679;28;20064;-48
2022/08/31 10:45:40;;;;;;;5.18;4.45;;;23.60;54.60;;;;;;5022334;28;20046;-52
2022/08/31 10:48:11;;;;;;;6.07;4.10;;;23.70;54.70;;;;;;5014951;28;20544;-52
2022/08/31 10:50:46;;;;;;;5.13;4.40;;;23.70;54.90;;;;;;5017289;28;20050;-56
2022/08/31 10:53:32;;;;;;;7.68;4.90;;;23.70;54.80;;;;;;5016029;28;20132;-49
2022/08/31 10:56:13;;;;;;;7.45;4.13;;;23.80;54.70;;;;;;5022383;28;20053;-52
2022/08/31 10:58:49;;;;;;;5.97;4.00;;;23.80;54.40;;;;;;5020371;28;20049;-48
2022/08/31 11:01:20;;;;;;;5.25;4.32;;;23.80;54.20;;;;;;5017007;28;20493;-52
2022/08/31 11:04:20;;;;;;;5.38;4.55;;;23.90;54.30;;;;;;5020779;28;20057;-52
2022/08/31 11:06:53;;;;;;;4.30;3.90;;;23.90;54.30;;;;;;5014252;28;20417;-51
2022/08/31 11:09:25;;;;;;;7.68;3.55;;;24.00;54.20;;;;;;5018431;28;20493;-48
2022/08/31 11:12:05;;;;;;;5.70;3.85;;;24.00;54.10;;;;;;5016309;28;20509;-48
2022/08/31 11:14:52;;;;;;;5.65;3.78;;;24.00;53.90;;;;;;5015958;28;20053;-57
2022/08/31 11:17:31;;;;;;;7.18;3.88;;;24.10;53.60;;;;;;5018103;28;20045;-47
2022/08/31 11:20:18;;;;;;;5.43;3.67;;;24.10;53.40;;;;;;5018113;28;20050;-58
2022/08/31 11:23:11;;;;;;;5.13;3.45;;;24.20;53.30;;;;;;5022580;28;20409;-51
2022/08/31 11:26:25;;;;;;;6.30;3.83;;;24.20;53.00;;;;;;5022977;28;20486;-49
2022/08/31 11:28:57;;;;;;;3.65;3.25;;;24.20;52.70;;;;;;5004837;28;20054;-53
2022/08/31 11:31:29;;;;;;;5.63;3.75;;;24.30;52.70;;;;;;5013888;28;20072;-51
2022/08/31 11:33:59;;;;;;;4.28;3.58;;;24.30;52.50;;;;;;5020055;28;20056;-48
2022/08/31 11:36:48;;;;;;;4.38;3.35;;;24.30;52.50;;;;;;5019637;28;20041;-52
2022/08/31 11:39:25;;;;;;;7.10;3.47;;;24.30;52.20;;;;;;5018185;28;20064;-49
2022/08/31 11:41:54;;;;;;;10.05;3.65;;;24.30;52.10;;;;;;5012447;28;20057;-49
2022/08/31 11:44:44;;;;;;;4.97;3.45;;;24.40;52.20;;;;;;5016604;28;20049;-49
2022/08/31 11:47:33;;;;;;;3.97;3.30;;;24.40;52.20;;;;;;5020046;28;20068;-55
2022/08/31 11:50:03;;;;;;;4.53;3.28;;;24.40;52.30;;;;;;5010978;28;20065;-50
2022/08/31 11:52:41;;;;;;;9.13;3.40;;;24.40;51.80;;;;;;5019535;28;20052;-49
2022/08/31 11:55:22;;;;;;;4.72;2.95;;;24.40;51.50;;;;;;5019198;28;20516;-51
2022/08/31 11:58:32;;;;;;;3.25;2.95;;;24.40;51.30;;;;;;5017216;28;20068;-52
2022/08/31 12:01:24;;;;;;;5.63;3.53;;;24.40;51.20;;;;;;5013890;28;20049;-52
2022/08/31 12:03:55;;;;;;;4.78;3.30;;;24.40;51.10;;;;;;5020175;28;20053;-53
2022/08/31 12:07:09;;;;;;;4.22;2.80;;;24.40;51.20;;;;;;5011773;28;20054;-50
2022/08/31 12:10:10;;;;;;;6.68;3.45;;;24.50;51.10;;;;;;5014149;28;20053;-51
2022/08/31 12:12:48;;;;;;;4.82;3.03;;;24.50;50.90;;;;;;5016111;28;20057;-48
2022/08/31 12:15:25;;;;;;;4.78;3.53;;;24.50;50.80;;;;;;5009931;28;20069;-58
2022/08/31 12:18:08;;;;;;;6.00;3.17;;;24.50;50.90;;;;;;5017528;28;20054;-48
2022/08/31 12:23:38;;;;;;;15.98;10.13;;;24.50;51.00;;;;;;5024519;28;21682;-48
2022/08/31 12:26:39;;;;;;;8.50;5.00;;;24.50;50.80;;;;;;5017520;28;20057;-50
2022/08/31 12:29:20;;;;;;;7.13;3.92;;;24.50;50.80;;;;;;5011493;28;20064;-54
2022/08/31 12:32:06;;;;;;;8.00;3.80;;;24.50;50.80;;;;;;5011307;28;20607;-50
2022/08/31 12:34:37;;;;;;;4.88;3.60;;;24.50;50.40;;;;;;5015309;28;20053;-57
2022/08/31 12:37:18;;;;;;;5.95;3.97;;;24.50;50.70;;;;;;5017624;28;20045;-49
2022/08/31 12:39:47;;;;;;;4.80;3.90;;;24.50;50.60;;;;;;5016373;28;20554;-50
2022/08/31 12:42:14;;;;;;;7.07;3.97;;;24.60;50.80;;;;;;5017977;28;20053;-50
2022/08/31 12:44:47;;;;;;;5.53;4.07;;;24.60;50.60;;;;;;5019816;28;20053;-57
2022/08/31 12:47:25;;;;;;;7.28;4.20;;;24.60;50.30;;;;;;5022033;28;20525;-49
2022/08/31 12:50:05;;;;;;;6.45;4.10;;;24.70;50.20;;;;;;5014704;28;20487;-50
2022/08/31 12:52:45;;;;;;;4.90;3.35;;;24.70;50.00;;;;;;5021069;28;20053;-47
2022/08/31 12:55:33;;;;;;;7.80;4.32;;;24.70;49.80;;;;;;5021452;28;20058;-54
2022/08/31 12:58:17;;;;;;;3.97;3.25;;;24.70;49.50;;;;;;5018037;28;20057;-56
2022/08/31 13:00:45;;;;;;;4.60;3.42;;;24.70;49.60;;;;;;5008675;28;20073;-49
2022/08/31 13:03:20;;;;;;;4.00;3.28;;;24.80;49.70;;;;;;5013296;28;20049;-51
2022/08/31 13:06:02;;;;;;;4.80;3.25;;;24.80;49.90;;;;;;5020150;28;20057;-53
2022/08/31 13:08:35;;;;;;;6.25;3.80;;;24.80;49.50;;;;;;5013771;28;20061;-50
2022/08/31 13:11:18;;;;;;;8.77;3.72;;;24.80;49.40;;;;;;5013983;28;20062;-47
2022/08/31 13:13:45;;;;;;;5.35;3.72;;;24.90;49.20;;;;;;5020286;28;20061;-49
2022/08/31 13:16:12;;;;;;;4.43;3.40;;;25.00;49.30;;;;;;5020012;28;20056;-48
2022/08/31 13:18:40;;;;;;;4.60;3.78;;;25.00;49.10;;;;;;5021404;28;20057;-49
2022/08/31 13:21:09;;;;;;;5.63;3.78;;;25.10;49.30;;;;;;5020394;28;20061;-50
2022/08/31 13:23:40;;;;;;;4.97;3.50;;;25.10;49.00;;;;;;5018599;28;20076;-48